sensor_id;sensor_type;location;lat;lon;timestamp;temperature;humidity
40808;DHT22;26523;52.504;13.498;2023-06-10T00:02:15;15.80;99.90
40808;DHT22;26523;52.504;13.498;2023-06-10T00:04:42;15.70;99.90
40808;DHT22;26523;52.504;13.498;2023-06-10T00:07:08;15.70;99.90
40808;DHT22;26523;52.504;13.498;2023-06-10T00:09:37;15.60;99.90
40808;DHT22;26523;52.504;13.498;2023-06-10T00:12:07;15.60;99.90
40808;DHT22;26523;52.504;13.498;2023-06-10T00:14:37;15.50;99.90
40808;DHT22;26523;52.504;13.498;2023-06-10T00:17:03;15.60;99.90
40808;DHT22;26523;52.504;13.498;2023-06-10T00:19:28;15.70;99.90
40808;DHT22;26523;52.504;13.498;2023-06-10T00:21:57;15.60;99.90
40808;DHT22;26523;52.504;13.498;2023-06-10T00:24:23;15.60;99.90
40808;DHT22;26523;52.504;13.498;2023-06-10T00:26:49;15.60;99.90
40808;DHT22;26523;52.504;13.498;2023-06-10T00:29:15;15.60;99.90
40808;DHT22;26523;52.504;13.498;2023-06-10T00:31:41;15.60;99.90
40808;DHT22;26523;52.504;13.498;2023-06-10T00:34:07;15.50;99.90
40808;DHT22;26523;52.504;13.498;2023-06-10T00:36:33;15.50;99.90
40808;DHT22;26523;52.504;13.498;2023-06-10T00:38:59;15.40;99.90
40808;DHT22;26523;52.504;13.498;2023-06-10T00:41:24;15.40;99.90
40808;DHT22;26523;52.504;13.498;2023-06-10T00:43:52;15.40;99.90
40808;DHT22;26523;52.504;13.498;2023-06-10T00:46:18;15.40;99.90
40808;DHT22;26523;52.504;13.498;2023-06-10T00:48:45;15.50;99.90
40808;DHT22;26523;52.504;13.498;2023-06-10T00:51:11;15.50;99.90
40808;DHT22;26523;52.504;13.498;2023-06-10T00:53:39;15.40;99.90
40808;DHT22;26523;52.504;13.498;2023-06-10T00:56:05;15.50;99.90
40808;DHT22;26523;52.504;13.498;2023-06-10T00:58:31;15.40;99.90
40808;DHT22;26523;52.504;13.498;2023-06-10T01:00:57;15.40;99.90
40808;DHT22;26523;52.504;13.498;2023-06-10T01:03:23;15.40;99.90
40808;DHT22;26523;52.504;13.498;2023-06-10T01:05:57;15.40;99.90
40808;DHT22;26523;52.504;13.498;2023-06-10T01:08:39;15.30;99.90
40808;DHT22;26523;52.504;13.498;2023-06-10T01:11:13;15.30;99.90
40808;DHT22;26523;52.504;13.498;2023-06-10T01:13:44;15.20;99.90
40808;DHT22;26523;52.504;13.498;2023-06-10T01:16:11;15.20;99.90
40808;DHT22;26523;52.504;13.498;2023-06-10T01:18:37;15.20;99.90
40808;DHT22;26523;52.504;13.498;2023-06-10T01:21:04;15.20;99.90
40808;DHT22;26523;52.504;13.498;2023-06-10T01:23:29;15.20;99.90
40808;DHT22;26523;52.504;13.498;2023-06-10T01:26:04;15.10;99.90
40808;DHT22;26523;52.504;13.498;2023-06-10T01:28:38;15.10;99.90
40808;DHT22;26523;52.504;13.498;2023-06-10T01:33:41;15.00;99.90
40808;DHT22;26523;52.504;13.498;2023-06-10T01:36:07;15.10;99.90
40808;DHT22;26523;52.504;13.498;2023-06-10T01:38:38;15.10;99.90
40808;DHT22;26523;52.504;13.498;2023-06-10T01:41:05;15.00;99.90
40808;DHT22;26523;52.504;13.498;2023-06-10T01:43:35;14.90;99.90
40808;DHT22;26523;52.504;13.498;2023-06-10T01:46:02;14.90;99.90
40808;DHT22;26523;52.504;13.498;2023-06-10T01:48:28;14.90;99.90
40808;DHT22;26523;52.504;13.498;2023-06-10T01:50:53;14.90;99.90
40808;DHT22;26523;52.504;13.498;2023-06-10T01:53:21;14.90;99.90
40808;DHT22;26523;52.504;13.498;2023-06-10T01:55:47;14.80;99.90
40808;DHT22;26523;52.504;13.498;2023-06-10T01:58:13;14.80;99.90
40808;DHT22;26523;52.504;13.498;2023-06-10T02:00:39;14.80;99.90
40808;DHT22;26523;52.504;13.498;2023-06-10T02:03:05;14.80;99.90
40808;DHT22;26523;52.504;13.498;2023-06-10T02:05:30;14.70;99.90
40808;DHT22;26523;52.504;13.498;2023-06-10T02:07:56;14.70;99.90
40808;DHT22;26523;52.504;13.498;2023-06-10T02:10:22;14.60;99.90
40808;DHT22;26523;52.504;13.498;2023-06-10T02:12:47;14.60;99.90
40808;DHT22;26523;52.504;13.498;2023-06-10T02:15:13;14.60;99.90
40808;DHT22;26523;52.504;13.498;2023-06-10T02:17:39;14.60;99.90
40808;DHT22;26523;52.504;13.498;2023-06-10T02:20:05;14.60;99.90
40808;DHT22;26523;52.504;13.498;2023-06-10T02:22:32;14.50;99.90
40808;DHT22;26523;52.504;13.498;2023-06-10T02:24:58;14.50;99.90
40808;DHT22;26523;52.504;13.498;2023-06-10T02:27:24;14.50;99.90
40808;DHT22;26523;52.504;13.498;2023-06-10T02:29:50;14.50;99.90
40808;DHT22;26523;52.504;13.498;2023-06-10T02:32:15;14.40;99.90
40808;DHT22;26523;52.504;13.498;2023-06-10T02:34:42;14.50;99.90
40808;DHT22;26523;52.504;13.498;2023-06-10T02:37:08;14.50;99.90
40808;DHT22;26523;52.504;13.498;2023-06-10T02:39:34;14.40;99.90
40808;DHT22;26523;52.504;13.498;2023-06-10T02:42:00;14.40;99.90
40808;DHT22;26523;52.504;13.498;2023-06-10T02:44:25;14.40;99.90
40808;DHT22;26523;52.504;13.498;2023-06-10T02:46:51;14.40;99.90
40808;DHT22;26523;52.504;13.498;2023-06-10T02:49:17;14.40;99.90
40808;DHT22;26523;52.504;13.498;2023-06-10T02:51:42;14.40;99.90
40808;DHT22;26523;52.504;13.498;2023-06-10T02:54:08;14.40;99.90
40808;DHT22;26523;52.504;13.498;2023-06-10T02:56:34;14.40;99.90
40808;DHT22;26523;52.504;13.498;2023-06-10T02:59:00;14.40;99.90
40808;DHT22;26523;52.504;13.498;2023-06-10T03:01:26;14.30;99.90
40808;DHT22;26523;52.504;13.498;2023-06-10T03:03:51;14.30;99.90
40808;DHT22;26523;52.504;13.498;2023-06-10T03:06:18;14.30;99.90
40808;DHT22;26523;52.504;13.498;2023-06-10T03:08:44;14.30;99.90
40808;DHT22;26523;52.504;13.498;2023-06-10T03:11:11;14.30;99.90
40808;DHT22;26523;52.504;13.498;2023-06-10T03:13:38;14.30;99.90
40808;DHT22;26523;52.504;13.498;2023-06-10T03:16:04;14.30;99.90
40808;DHT22;26523;52.504;13.498;2023-06-10T03:18:30;14.30;99.90
40808;DHT22;26523;52.504;13.498;2023-06-10T03:20:55;14.30;99.90
40808;DHT22;26523;52.504;13.498;2023-06-10T03:23:22;14.30;99.90
40808;DHT22;26523;52.504;13.498;2023-06-10T03:25:48;14.30;99.90
40808;DHT22;26523;52.504;13.498;2023-06-10T03:28:14;14.30;99.90
40808;DHT22;26523;52.504;13.498;2023-06-10T03:30:39;14.40;99.90
40808;DHT22;26523;52.504;13.498;2023-06-10T03:33:05;14.40;99.90
40808;DHT22;26523;52.504;13.498;2023-06-10T03:35:31;14.40;99.90
40808;DHT22;26523;52.504;13.498;2023-06-10T03:38:00;14.40;99.90
40808;DHT22;26523;52.504;13.498;2023-06-10T03:40:25;14.50;99.90
40808;DHT22;26523;52.504;13.498;2023-06-10T03:42:51;14.50;99.90
40808;DHT22;26523;52.504;13.498;2023-06-10T03:45:17;14.50;99.90
40808;DHT22;26523;52.504;13.498;2023-06-10T03:47:43;14.60;99.90
40808;DHT22;26523;52.504;13.498;2023-06-10T03:50:09;14.60;99.90
40808;DHT22;26523;52.504;13.498;2023-06-10T03:52:36;14.60;99.90
40808;DHT22;26523;52.504;13.498;2023-06-10T03:55:02;14.60;99.90
40808;DHT22;26523;52.504;13.498;2023-06-10T03:57:27;14.60;99.90
40808;DHT22;26523;52.504;13.498;2023-06-10T03:59:53;14.60;99.90
40808;DHT22;26523;52.504;13.498;2023-06-10T04:02:19;14.70;99.90
40808;DHT22;26523;52.504;13.498;2023-06-10T04:04:45;14.70;99.90
40808;DHT22;26523;52.504;13.498;2023-06-10T04:07:10;14.80;99.90
40808;DHT22;26523;52.504;13.498;2023-06-10T04:09:36;14.80;99.90
40808;DHT22;26523;52.504;13.498;2023-06-10T04:12:03;14.80;99.90
40808;DHT22;26523;52.504;13.498;2023-06-10T04:14:31;14.90;99.90
40808;DHT22;26523;52.504;13.498;2023-06-10T04:16:57;14.90;99.90
40808;DHT22;26523;52.504;13.498;2023-06-10T04:19:22;15.00;99.90
40808;DHT22;26523;52.504;13.498;2023-06-10T04:21:48;15.10;99.90
40808;DHT22;26523;52.504;13.498;2023-06-10T04:24:14;15.10;99.90
40808;DHT22;26523;52.504;13.498;2023-06-10T04:26:39;15.10;99.90
40808;DHT22;26523;52.504;13.498;2023-06-10T04:29:05;15.00;99.90
40808;DHT22;26523;52.504;13.498;2023-06-10T04:31:31;15.00;99.90
40808;DHT22;26523;52.504;13.498;2023-06-10T04:33:57;15.10;99.90
40808;DHT22;26523;52.504;13.498;2023-06-10T04:36:23;15.10;99.90
40808;DHT22;26523;52.504;13.498;2023-06-10T04:38:49;15.10;99.90
40808;DHT22;26523;52.504;13.498;2023-06-10T04:41:14;15.00;99.90
40808;DHT22;26523;52.504;13.498;2023-06-10T04:43:40;15.10;99.90
40808;DHT22;26523;52.504;13.498;2023-06-10T04:46:06;15.20;99.90
40808;DHT22;26523;52.504;13.498;2023-06-10T04:48:32;15.30;99.90
40808;DHT22;26523;52.504;13.498;2023-06-10T04:51:00;15.60;99.90
40808;DHT22;26523;52.504;13.498;2023-06-10T04:53:26;15.90;99.90
40808;DHT22;26523;52.504;13.498;2023-06-10T04:55:54;16.30;99.90
40808;DHT22;26523;52.504;13.498;2023-06-10T04:58:19;16.60;99.90
40808;DHT22;26523;52.504;13.498;2023-06-10T05:00:45;17.10;99.90
40808;DHT22;26523;52.504;13.498;2023-06-10T05:03:11;17.30;99.90
40808;DHT22;26523;52.504;13.498;2023-06-10T05:05:36;17.40;99.90
40808;DHT22;26523;52.504;13.498;2023-06-10T05:08:02;17.40;99.90
40808;DHT22;26523;52.504;13.498;2023-06-10T05:10:28;17.70;99.90
40808;DHT22;26523;52.504;13.498;2023-06-10T05:12:57;17.70;99.90
40808;DHT22;26523;52.504;13.498;2023-06-10T05:15:23;17.80;99.90
40808;DHT22;26523;52.504;13.498;2023-06-10T05:17:49;18.00;99.90
40808;DHT22;26523;52.504;13.498;2023-06-10T05:20:14;18.30;99.90
40808;DHT22;26523;52.504;13.498;2023-06-10T05:22:40;18.90;99.90
40808;DHT22;26523;52.504;13.498;2023-06-10T05:25:07;20.30;99.90
40808;DHT22;26523;52.504;13.498;2023-06-10T05:27:33;21.70;99.90
40808;DHT22;26523;52.504;13.498;2023-06-10T05:29:58;22.80;99.90
40808;DHT22;26523;52.504;13.498;2023-06-10T05:32:24;24.00;99.90
40808;DHT22;26523;52.504;13.498;2023-06-10T05:34:50;23.60;99.70
40808;DHT22;26523;52.504;13.498;2023-06-10T05:37:16;23.00;99.90
40808;DHT22;26523;52.504;13.498;2023-06-10T05:39:41;21.40;99.90
40808;DHT22;26523;52.504;13.498;2023-06-10T05:42:07;21.00;99.90
40808;DHT22;26523;52.504;13.498;2023-06-10T05:44:33;21.10;99.90
40808;DHT22;26523;52.504;13.498;2023-06-10T05:46:59;21.30;99.90
40808;DHT22;26523;52.504;13.498;2023-06-10T05:49:24;21.10;99.90
40808;DHT22;26523;52.504;13.498;2023-06-10T05:51:50;21.40;99.90
40808;DHT22;26523;52.504;13.498;2023-06-10T05:54:18;21.80;99.90
40808;DHT22;26523;52.504;13.498;2023-06-10T05:56:44;23.10;99.90
40808;DHT22;26523;52.504;13.498;2023-06-10T05:59:09;23.60;99.10
40808;DHT22;26523;52.504;13.498;2023-06-10T06:01:35;23.10;99.30
40808;DHT22;26523;52.504;13.498;2023-06-10T06:04:01;23.00;99.60
40808;DHT22;26523;52.504;13.498;2023-06-10T06:06:26;23.20;99.20
40808;DHT22;26523;52.504;13.498;2023-06-10T06:08:52;22.40;99.90
40808;DHT22;26523;52.504;13.498;2023-06-10T06:11:18;21.70;99.90
40808;DHT22;26523;52.504;13.498;2023-06-10T06:13:43;21.70;99.90
40808;DHT22;26523;52.504;13.498;2023-06-10T06:16:09;21.70;99.90
40808;DHT22;26523;52.504;13.498;2023-06-10T06:18:35;21.80;99.90
40808;DHT22;26523;52.504;13.498;2023-06-10T06:21:01;21.50;99.90
40808;DHT22;26523;52.504;13.498;2023-06-10T06:23:26;21.20;99.90
40808;DHT22;26523;52.504;13.498;2023-06-10T06:25:52;21.30;99.90
40808;DHT22;26523;52.504;13.498;2023-06-10T06:28:17;21.50;99.90
40808;DHT22;26523;52.504;13.498;2023-06-10T06:30:44;21.80;99.90
40808;DHT22;26523;52.504;13.498;2023-06-10T06:33:10;22.00;99.90
40808;DHT22;26523;52.504;13.498;2023-06-10T06:35:36;21.70;99.90
40808;DHT22;26523;52.504;13.498;2023-06-10T06:38:03;22.10;99.90
40808;DHT22;26523;52.504;13.498;2023-06-10T06:40:29;22.80;99.90
40808;DHT22;26523;52.504;13.498;2023-06-10T06:42:55;23.40;99.30
40808;DHT22;26523;52.504;13.498;2023-06-10T06:45:21;23.70;98.80
40808;DHT22;26523;52.504;13.498;2023-06-10T06:47:46;23.30;98.80
40808;DHT22;26523;52.504;13.498;2023-06-10T06:50:12;23.50;98.70
40808;DHT22;26523;52.504;13.498;2023-06-10T06:52:38;25.00;97.00
40808;DHT22;26523;52.504;13.498;2023-06-10T06:55:04;26.90;95.20
40808;DHT22;26523;52.504;13.498;2023-06-10T06:57:30;28.70;92.90
40808;DHT22;26523;52.504;13.498;2023-06-10T06:59:55;29.30;90.30
40808;DHT22;26523;52.504;13.498;2023-06-10T07:02:21;29.20;88.40
40808;DHT22;26523;52.504;13.498;2023-06-10T07:04:47;30.40;85.50
40808;DHT22;26523;52.504;13.498;2023-06-10T07:07:15;30.70;84.20
40808;DHT22;26523;52.504;13.498;2023-06-10T07:09:40;31.80;80.60
40808;DHT22;26523;52.504;13.498;2023-06-10T07:12:06;32.20;77.40
40808;DHT22;26523;52.504;13.498;2023-06-10T07:14:32;32.90;77.70
40808;DHT22;26523;52.504;13.498;2023-06-10T07:16:58;33.20;75.30
40808;DHT22;26523;52.504;13.498;2023-06-10T07:19:23;33.40;73.30
40808;DHT22;26523;52.504;13.498;2023-06-10T07:21:49;33.20;73.50
40808;DHT22;26523;52.504;13.498;2023-06-10T07:24:15;34.00;71.80
40808;DHT22;26523;52.504;13.498;2023-06-10T07:26:40;35.10;70.40
40808;DHT22;26523;52.504;13.498;2023-06-10T07:29:06;34.80;69.00
40808;DHT22;26523;52.504;13.498;2023-06-10T07:31:32;34.10;69.80
40808;DHT22;26523;52.504;13.498;2023-06-10T07:33:57;33.80;70.70
40808;DHT22;26523;52.504;13.498;2023-06-10T07:36:23;34.10;69.50
40808;DHT22;26523;52.504;13.498;2023-06-10T07:38:49;33.70;70.50
40808;DHT22;26523;52.504;13.498;2023-06-10T07:41:14;32.10;71.10
40808;DHT22;26523;52.504;13.498;2023-06-10T07:43:43;30.20;74.90
40808;DHT22;26523;52.504;13.498;2023-06-10T07:46:08;29.00;77.70
40808;DHT22;26523;52.504;13.498;2023-06-10T07:48:34;28.10;79.00
40808;DHT22;26523;52.504;13.498;2023-06-10T07:51:00;27.50;81.00
40808;DHT22;26523;52.504;13.498;2023-06-10T07:53:26;27.10;82.30
40808;DHT22;26523;52.504;13.498;2023-06-10T07:55:51;26.70;83.70
40808;DHT22;26523;52.504;13.498;2023-06-10T07:58:17;27.00;82.60
40808;DHT22;26523;52.504;13.498;2023-06-10T08:00:42;28.10;81.30
40808;DHT22;26523;52.504;13.498;2023-06-10T08:03:08;29.50;78.80
40808;DHT22;26523;52.504;13.498;2023-06-10T08:05:34;31.40;76.00
40808;DHT22;26523;52.504;13.498;2023-06-10T08:07:59;32.60;73.40
40808;DHT22;26523;52.504;13.498;2023-06-10T08:10:25;33.50;71.00
40808;DHT22;26523;52.504;13.498;2023-06-10T08:12:51;34.80;69.30
40808;DHT22;26523;52.504;13.498;2023-06-10T08:15:16;33.10;69.80
40808;DHT22;26523;52.504;13.498;2023-06-10T08:17:42;31.80;72.40
40808;DHT22;26523;52.504;13.498;2023-06-10T08:20:08;30.20;73.50
40808;DHT22;26523;52.504;13.498;2023-06-10T08:22:34;30.40;75.70
40808;DHT22;26523;52.504;13.498;2023-06-10T08:24:59;30.10;74.50
40808;DHT22;26523;52.504;13.498;2023-06-10T08:27:25;29.50;76.00
40808;DHT22;26523;52.504;13.498;2023-06-10T08:29:51;29.10;76.60
40808;DHT22;26523;52.504;13.498;2023-06-10T08:32:16;28.40;77.70
40808;DHT22;26523;52.504;13.498;2023-06-10T08:34:42;28.20;78.90
40808;DHT22;26523;52.504;13.498;2023-06-10T08:37:08;28.30;78.20
40808;DHT22;26523;52.504;13.498;2023-06-10T08:39:33;29.20;76.70
40808;DHT22;26523;52.504;13.498;2023-06-10T08:42:12;28.70;77.20
40808;DHT22;26523;52.504;13.498;2023-06-10T08:44:40;29.40;76.90
40808;DHT22;26523;52.504;13.498;2023-06-10T08:47:17;30.20;75.60
40808;DHT22;26523;52.504;13.498;2023-06-10T08:49:45;29.20;77.20
40808;DHT22;26523;52.504;13.498;2023-06-10T08:52:16;28.40;79.00
40808;DHT22;26523;52.504;13.498;2023-06-10T08:54:59;27.80;80.70
40808;DHT22;26523;52.504;13.498;2023-06-10T08:57:26;27.50;80.90
40808;DHT22;26523;52.504;13.498;2023-06-10T08:59:56;27.50;82.30
40808;DHT22;26523;52.504;13.498;2023-06-10T09:02:23;27.40;81.30
40808;DHT22;26523;52.504;13.498;2023-06-10T09:04:50;27.70;81.80
40808;DHT22;26523;52.504;13.498;2023-06-10T09:07:16;27.60;81.50
40808;DHT22;26523;52.504;13.498;2023-06-10T09:09:43;27.80;82.10
40808;DHT22;26523;52.504;13.498;2023-06-10T09:12:10;27.50;82.00
40808;DHT22;26523;52.504;13.498;2023-06-10T09:14:36;28.30;81.10
40808;DHT22;26523;52.504;13.498;2023-06-10T09:17:03;28.40;79.30
40808;DHT22;26523;52.504;13.498;2023-06-10T09:19:29;29.80;78.20
40808;DHT22;26523;52.504;13.498;2023-06-10T09:21:55;31.10;75.00
40808;DHT22;26523;52.504;13.498;2023-06-10T09:24:24;31.40;74.20
40808;DHT22;26523;52.504;13.498;2023-06-10T09:26:50;32.70;72.80
40808;DHT22;26523;52.504;13.498;2023-06-10T09:29:26;34.40;71.00
40808;DHT22;26523;52.504;13.498;2023-06-10T09:31:52;35.90;68.70
40808;DHT22;26523;52.504;13.498;2023-06-10T09:34:18;35.90;67.00
40808;DHT22;26523;52.504;13.498;2023-06-10T09:36:44;36.00;66.60
40808;DHT22;26523;52.504;13.498;2023-06-10T09:39:15;35.00;67.20
40808;DHT22;26523;52.504;13.498;2023-06-10T09:41:42;34.90;67.30
40808;DHT22;26523;52.504;13.498;2023-06-10T09:44:19;34.50;67.50
40808;DHT22;26523;52.504;13.498;2023-06-10T09:46:46;32.20;69.30
40808;DHT22;26523;52.504;13.498;2023-06-10T09:49:12;29.70;73.60
40808;DHT22;26523;52.504;13.498;2023-06-10T09:51:41;28.10;77.30
40808;DHT22;26523;52.504;13.498;2023-06-10T09:54:14;27.30;79.50
40808;DHT22;26523;52.504;13.498;2023-06-10T09:56:39;27.40;80.20
40808;DHT22;26523;52.504;13.498;2023-06-10T09:59:08;27.20;80.50
40808;DHT22;26523;52.504;13.498;2023-06-10T10:01:34;26.70;80.20
40808;DHT22;26523;52.504;13.498;2023-06-10T10:04:00;25.70;81.50
40808;DHT22;26523;52.504;13.498;2023-06-10T10:06:26;25.20;82.50
40808;DHT22;26523;52.504;13.498;2023-06-10T10:08:52;24.90;83.10
40808;DHT22;26523;52.504;13.498;2023-06-10T10:11:20;24.70;83.40
40808;DHT22;26523;52.504;13.498;2023-06-10T10:13:49;24.80;83.20
40808;DHT22;26523;52.504;13.498;2023-06-10T10:16:17;24.80;82.90
40808;DHT22;26523;52.504;13.498;2023-06-10T10:18:57;24.80;83.10
40808;DHT22;26523;52.504;13.498;2023-06-10T10:21:32;25.10;82.20
40808;DHT22;26523;52.504;13.498;2023-06-10T10:24:12;25.10;82.30
40808;DHT22;26523;52.504;13.498;2023-06-10T10:26:40;24.90;82.00
40808;DHT22;26523;52.504;13.498;2023-06-10T10:29:39;24.90;82.10
40808;DHT22;26523;52.504;13.498;2023-06-10T10:32:07;25.30;81.90
40808;DHT22;26523;52.504;13.498;2023-06-10T10:34:54;25.50;80.90
40808;DHT22;26523;52.504;13.498;2023-06-10T10:37:22;25.60;80.10
40808;DHT22;26523;52.504;13.498;2023-06-10T10:39:48;25.80;80.10
40808;DHT22;26523;52.504;13.498;2023-06-10T10:42:14;26.30;79.40
40808;DHT22;26523;52.504;13.498;2023-06-10T10:44:41;26.50;77.50
40808;DHT22;26523;52.504;13.498;2023-06-10T10:47:10;26.50;76.30
40808;DHT22;26523;52.504;13.498;2023-06-10T10:49:38;26.50;76.20
40808;DHT22;26523;52.504;13.498;2023-06-10T10:52:05;26.60;75.90
40808;DHT22;26523;52.504;13.498;2023-06-10T10:54:36;26.90;74.70
40808;DHT22;26523;52.504;13.498;2023-06-10T10:57:14;27.00;74.70
40808;DHT22;26523;52.504;13.498;2023-06-10T10:59:53;27.20;74.80
40808;DHT22;26523;52.504;13.498;2023-06-10T11:05:00;27.60;73.50
40808;DHT22;26523;52.504;13.498;2023-06-10T11:07:26;27.50;73.80
40808;DHT22;26523;52.504;13.498;2023-06-10T11:10:05;27.60;73.40
40808;DHT22;26523;52.504;13.498;2023-06-10T11:15:19;27.80;73.30
40808;DHT22;26523;52.504;13.498;2023-06-10T11:21:05;27.50;73.00
40808;DHT22;26523;52.504;13.498;2023-06-10T11:23:34;27.10;74.70
40808;DHT22;26523;52.504;13.498;2023-06-10T11:26:18;26.80;75.20
40808;DHT22;26523;52.504;13.498;2023-06-10T11:31:35;26.80;75.80
40808;DHT22;26523;52.504;13.498;2023-06-10T11:34:04;26.80;73.40
40808;DHT22;26523;52.504;13.498;2023-06-10T11:36:31;26.70;73.10
40808;DHT22;26523;52.504;13.498;2023-06-10T11:39:05;26.50;72.20
40808;DHT22;26523;52.504;13.498;2023-06-10T11:41:31;26.60;72.20
40808;DHT22;26523;52.504;13.498;2023-06-10T11:44:02;26.50;73.60
40808;DHT22;26523;52.504;13.498;2023-06-10T11:46:27;26.40;75.00
40808;DHT22;26523;52.504;13.498;2023-06-10T11:48:55;26.40;75.40
40808;DHT22;26523;52.504;13.498;2023-06-10T11:51:20;26.10;77.60
40808;DHT22;26523;52.504;13.498;2023-06-10T11:53:47;26.00;79.40
40808;DHT22;26523;52.504;13.498;2023-06-10T11:56:13;25.80;80.80
40808;DHT22;26523;52.504;13.498;2023-06-10T11:58:43;25.70;80.60
40808;DHT22;26523;52.504;13.498;2023-06-10T12:01:10;25.70;80.00
40808;DHT22;26523;52.504;13.498;2023-06-10T12:03:37;25.60;79.50
40808;DHT22;26523;52.504;13.498;2023-06-10T12:06:05;25.50;79.00
40808;DHT22;26523;52.504;13.498;2023-06-10T12:08:32;25.50;79.10
40808;DHT22;26523;52.504;13.498;2023-06-10T12:10:58;25.50;78.90
40808;DHT22;26523;52.504;13.498;2023-06-10T12:13:27;25.60;79.40
40808;DHT22;26523;52.504;13.498;2023-06-10T12:16:06;25.80;78.60
40808;DHT22;26523;52.504;13.498;2023-06-10T12:18:32;25.80;78.80
40808;DHT22;26523;52.504;13.498;2023-06-10T12:20:58;25.70;79.90
40808;DHT22;26523;52.504;13.498;2023-06-10T12:23:24;25.70;80.40
40808;DHT22;26523;52.504;13.498;2023-06-10T12:25:52;25.80;80.80
40808;DHT22;26523;52.504;13.498;2023-06-10T12:28:21;25.90;80.50
40808;DHT22;26523;52.504;13.498;2023-06-10T12:30:47;26.10;80.70
40808;DHT22;26523;52.504;13.498;2023-06-10T12:33:22;26.00;81.10
40808;DHT22;26523;52.504;13.498;2023-06-10T12:35:51;26.00;81.30
40808;DHT22;26523;52.504;13.498;2023-06-10T12:38:24;26.00;80.90
40808;DHT22;26523;52.504;13.498;2023-06-10T12:40:50;26.00;81.30
40808;DHT22;26523;52.504;13.498;2023-06-10T12:43:23;26.10;81.30
40808;DHT22;26523;52.504;13.498;2023-06-10T12:45:49;26.20;81.90
40808;DHT22;26523;52.504;13.498;2023-06-10T12:48:22;26.20;82.10
40808;DHT22;26523;52.504;13.498;2023-06-10T12:53:18;26.20;82.20
40808;DHT22;26523;52.504;13.498;2023-06-10T12:55:44;26.30;82.30
40808;DHT22;26523;52.504;13.498;2023-06-10T12:58:11;26.30;81.50
40808;DHT22;26523;52.504;13.498;2023-06-10T13:00:37;26.40;81.90
40808;DHT22;26523;52.504;13.498;2023-06-10T13:03:03;26.50;82.30
40808;DHT22;26523;52.504;13.498;2023-06-10T13:05:31;26.50;80.50
40808;DHT22;26523;52.504;13.498;2023-06-10T13:07:57;26.60;79.50
40808;DHT22;26523;52.504;13.498;2023-06-10T13:10:23;26.70;79.90
40808;DHT22;26523;52.504;13.498;2023-06-10T13:12:48;26.80;78.90
40808;DHT22;26523;52.504;13.498;2023-06-10T13:15:15;26.80;79.00
40808;DHT22;26523;52.504;13.498;2023-06-10T13:17:41;26.80;79.80
40808;DHT22;26523;52.504;13.498;2023-06-10T13:20:07;27.00;80.50
40808;DHT22;26523;52.504;13.498;2023-06-10T13:22:34;27.10;80.50
40808;DHT22;26523;52.504;13.498;2023-06-10T13:25:05;27.20;80.60
40808;DHT22;26523;52.504;13.498;2023-06-10T13:27:33;27.10;80.90
40808;DHT22;26523;52.504;13.498;2023-06-10T13:29:59;27.00;81.80
40808;DHT22;26523;52.504;13.498;2023-06-10T13:32:25;26.90;81.50
40808;DHT22;26523;52.504;13.498;2023-06-10T13:34:50;26.90;81.50
40808;DHT22;26523;52.504;13.498;2023-06-10T13:37:16;27.00;81.20
40808;DHT22;26523;52.504;13.498;2023-06-10T13:39:45;27.20;79.80
40808;DHT22;26523;52.504;13.498;2023-06-10T13:42:17;27.20;78.10
40808;DHT22;26523;52.504;13.498;2023-06-10T13:44:42;27.30;79.80
40808;DHT22;26523;52.504;13.498;2023-06-10T13:47:08;27.30;80.50
40808;DHT22;26523;52.504;13.498;2023-06-10T13:49:34;27.20;80.90
40808;DHT22;26523;52.504;13.498;2023-06-10T13:52:00;27.20;81.20
40808;DHT22;26523;52.504;13.498;2023-06-10T13:54:25;27.30;81.60
40808;DHT22;26523;52.504;13.498;2023-06-10T13:56:52;27.30;81.50
40808;DHT22;26523;52.504;13.498;2023-06-10T13:59:19;27.20;80.50
40808;DHT22;26523;52.504;13.498;2023-06-10T14:01:45;27.00;80.20
40808;DHT22;26523;52.504;13.498;2023-06-10T14:04:11;26.90;79.80
40808;DHT22;26523;52.504;13.498;2023-06-10T14:06:36;26.90;78.30
40808;DHT22;26523;52.504;13.498;2023-06-10T14:09:02;26.80;78.10
40808;DHT22;26523;52.504;13.498;2023-06-10T14:11:28;26.70;77.00
40808;DHT22;26523;52.504;13.498;2023-06-10T14:13:54;26.80;77.20
40808;DHT22;26523;52.504;13.498;2023-06-10T14:16:22;26.90;76.90
40808;DHT22;26523;52.504;13.498;2023-06-10T14:18:47;26.80;76.20
40808;DHT22;26523;52.504;13.498;2023-06-10T14:21:13;26.70;77.20
40808;DHT22;26523;52.504;13.498;2023-06-10T14:23:39;26.70;76.80
40808;DHT22;26523;52.504;13.498;2023-06-10T14:26:04;26.80;76.90
40808;DHT22;26523;52.504;13.498;2023-06-10T14:28:32;26.90;76.20
40808;DHT22;26523;52.504;13.498;2023-06-10T14:30:58;26.80;75.30
40808;DHT22;26523;52.504;13.498;2023-06-10T14:33:23;26.70;74.80
40808;DHT22;26523;52.504;13.498;2023-06-10T14:35:49;26.60;75.10
40808;DHT22;26523;52.504;13.498;2023-06-10T14:38:15;26.70;75.40
40808;DHT22;26523;52.504;13.498;2023-06-10T14:40:41;26.80;74.90
40808;DHT22;26523;52.504;13.498;2023-06-10T14:43:06;26.80;74.30
40808;DHT22;26523;52.504;13.498;2023-06-10T14:45:38;26.70;73.80
40808;DHT22;26523;52.504;13.498;2023-06-10T14:48:05;26.70;73.70
40808;DHT22;26523;52.504;13.498;2023-06-10T14:50:31;26.80;73.90
40808;DHT22;26523;52.504;13.498;2023-06-10T14:52:58;26.80;74.30
40808;DHT22;26523;52.504;13.498;2023-06-10T14:55:23;26.80;75.00
40808;DHT22;26523;52.504;13.498;2023-06-10T14:57:49;26.80;74.50
40808;DHT22;26523;52.504;13.498;2023-06-10T15:00:15;26.80;74.60
40808;DHT22;26523;52.504;13.498;2023-06-10T15:02:45;26.80;74.10
40808;DHT22;26523;52.504;13.498;2023-06-10T15:05:13;26.80;74.00
40808;DHT22;26523;52.504;13.498;2023-06-10T15:07:40;26.80;74.70
40808;DHT22;26523;52.504;13.498;2023-06-10T15:10:06;27.00;74.40
40808;DHT22;26523;52.504;13.498;2023-06-10T15:12:32;27.10;73.50
40808;DHT22;26523;52.504;13.498;2023-06-10T15:14:58;27.10;72.70
40808;DHT22;26523;52.504;13.498;2023-06-10T15:17:23;27.20;72.50
40808;DHT22;26523;52.504;13.498;2023-06-10T15:19:49;27.10;71.80
40808;DHT22;26523;52.504;13.498;2023-06-10T15:22:14;27.20;71.10
40808;DHT22;26523;52.504;13.498;2023-06-10T15:24:40;27.20;70.20
40808;DHT22;26523;52.504;13.498;2023-06-10T15:27:06;27.20;69.50
40808;DHT22;26523;52.504;13.498;2023-06-10T15:29:32;27.20;68.50
40808;DHT22;26523;52.504;13.498;2023-06-10T15:31:57;27.10;68.40